sensor_id;sensor_type;location;lat;lon;timestamp;temperature;humidity
15872;DHT22;8035;51.962;7.162;2023-04-25T01:44:35;6.90;99.90
15872;DHT22;8035;51.962;7.162;2023-04-25T01:47:01;6.40;99.90
15872;DHT22;8035;51.962;7.162;2023-04-25T01:49:26;6.40;99.90
15872;DHT22;8035;51.962;7.162;2023-04-25T01:51:52;6.40;99.90
15872;DHT22;8035;51.962;7.162;2023-04-25T01:54:18;6.40;99.90
15872;DHT22;8035;51.962;7.162;2023-04-25T01:56:50;6.40;99.90
15872;DHT22;8035;51.962;7.162;2023-04-25T01:59:15;6.40;99.90
15872;DHT22;8035;51.962;7.162;2023-04-25T02:01:41;6.40;99.90
15872;DHT22;8035;51.962;7.162;2023-04-25T02:04:06;6.40;99.90
15872;DHT22;8035;51.962;7.162;2023-04-25T02:06:32;6.40;99.90
15872;DHT22;8035;51.962;7.162;2023-04-25T07:23:10;6.40;99.90
15872;DHT22;8035;51.962;7.162;2023-04-25T07:25:36;8.30;99.90
15872;DHT22;8035;51.962;7.162;2023-04-25T07:28:01;8.40;99.90
15872;DHT22;8035;51.962;7.162;2023-04-25T07:30:27;8.40;99.90
15872;DHT22;8035;51.962;7.162;2023-04-25T07:32:53;8.40;99.90
15872;DHT22;8035;51.962;7.162;2023-04-25T07:35:18;8.50;99.90
15872;DHT22;8035;51.962;7.162;2023-04-25T07:37:44;8.60;99.90
15872;DHT22;8035;51.962;7.162;2023-04-25T07:40:10;8.80;99.90
15872;DHT22;8035;51.962;7.162;2023-04-25T07:42:36;9.00;99.90
15872;DHT22;8035;51.962;7.162;2023-04-25T07:45:02;9.00;99.90
15872;DHT22;8035;51.962;7.162;2023-04-25T07:47:28;9.10;99.90
15872;DHT22;8035;51.962;7.162;2023-04-25T07:49:54;9.10;99.90
15872;DHT22;8035;51.962;7.162;2023-04-25T07:52:19;9.00;99.90
15872;DHT22;8035;51.962;7.162;2023-04-25T08:04:31;8.90;99.90
15872;DHT22;8035;51.962;7.162;2023-04-25T08:06:56;9.20;99.90
15872;DHT22;8035;51.962;7.162;2023-04-25T08:09:22;9.10;99.90
15872;DHT22;8035;51.962;7.162;2023-04-25T08:11:48;9.20;99.90
15872;DHT22;8035;51.962;7.162;2023-04-25T08:14:13;9.40;99.90
15872;DHT22;8035;51.962;7.162;2023-04-25T08:16:39;9.70;99.90
15872;DHT22;8035;51.962;7.162;2023-04-25T08:19:05;9.80;99.90
15872;DHT22;8035;51.962;7.162;2023-04-25T08:21:31;9.90;99.90
15872;DHT22;8035;51.962;7.162;2023-04-25T08:23:57;10.20;99.90
15872;DHT22;8035;51.962;7.162;2023-04-25T08:26:24;10.40;99.90
15872;DHT22;8035;51.962;7.162;2023-04-25T08:28:50;10.50;99.90
15872;DHT22;8035;51.962;7.162;2023-04-25T08:31:15;10.60;99.90
15872;DHT22;8035;51.962;7.162;2023-04-25T08:33:41;10.80;99.90
15872;DHT22;8035;51.962;7.162;2023-04-25T08:36:07;11.20;99.90
15872;DHT22;8035;51.962;7.162;2023-04-25T08:38:32;11.60;99.90
15872;DHT22;8035;51.962;7.162;2023-04-25T08:40:59;11.70;99.90
15872;DHT22;8035;51.962;7.162;2023-04-25T08:43:26;11.60;99.90
15872;DHT22;8035;51.962;7.162;2023-04-25T08:45:54;11.20;99.90
15872;DHT22;8035;51.962;7.162;2023-04-25T08:48:24;10.80;99.90
15872;DHT22;8035;51.962;7.162;2023-04-25T08:50:56;10.50;99.90
15872;DHT22;8035;51.962;7.162;2023-04-25T08:53:25;10.70;99.90
15872;DHT22;8035;51.962;7.162;2023-04-25T08:55:54;11.10;99.90
15872;DHT22;8035;51.962;7.162;2023-04-25T08:58:20;11.30;99.90
15872;DHT22;8035;51.962;7.162;2023-04-25T09:00:47;11.30;99.90
15872;DHT22;8035;51.962;7.162;2023-04-25T09:03:13;11.20;99.90
15872;DHT22;8035;51.962;7.162;2023-04-25T09:05:40;11.00;99.90
15872;DHT22;8035;51.962;7.162;2023-04-25T09:08:05;10.90;99.90
15872;DHT22;8035;51.962;7.162;2023-04-25T09:10:31;10.60;99.90
15872;DHT22;8035;51.962;7.162;2023-04-25T09:13:11;10.40;99.90
15872;DHT22;8035;51.962;7.162;2023-04-25T11:04:53;10.30;99.90
15872;DHT22;8035;51.962;7.162;2023-04-25T11:10:02;13.40;99.90
15872;DHT22;8035;51.962;7.162;2023-04-25T11:12:30;13.00;99.90
15872;DHT22;8035;51.962;7.162;2023-04-25T11:15:04;12.40;99.90
15872;DHT22;8035;51.962;7.162;2023-04-25T11:17:30;11.80;99.90
15872;DHT22;8035;51.962;7.162;2023-04-25T11:34:33;11.10;99.90
15872;DHT22;8035;51.962;7.162;2023-04-25T11:37:02;7.60;99.90
15872;DHT22;8035;51.962;7.162;2023-04-25T11:39:28;7.40;99.90
15872;DHT22;8035;51.962;7.162;2023-04-25T11:44:21;7.30;99.90
15872;DHT22;8035;51.962;7.162;2023-04-25T11:46:47;7.20;99.90
15872;DHT22;8035;51.962;7.162;2023-04-25T12:16:28;7.20;99.90
15872;DHT22;8035;51.962;7.162;2023-04-25T12:18:53;12.10;99.90
15872;DHT22;8035;51.962;7.162;2023-04-25T12:21:20;12.10;99.90
15872;DHT22;8035;51.962;7.162;2023-04-25T12:23:46;12.20;99.90
15872;DHT22;8035;51.962;7.162;2023-04-25T13:34:32;12.20;99.90
15872;DHT22;8035;51.962;7.162;2023-04-25T13:36:58;9.90;99.90
15872;DHT22;8035;51.962;7.162;2023-04-25T13:39:23;9.70;99.90
15872;DHT22;8035;51.962;7.162;2023-04-25T13:41:49;9.40;99.90
15872;DHT22;8035;51.962;7.162;2023-04-25T13:44:15;9.40;99.90
15872;DHT22;8035;51.962;7.162;2023-04-25T14:23:12;9.30;99.90
15872;DHT22;8035;51.962;7.162;2023-04-25T14:25:39;11.90;99.90
15872;DHT22;8035;51.962;7.162;2023-04-25T15:46:03;11.60;99.90
15872;DHT22;8035;51.962;7.162;2023-04-25T15:48:30;11.80;99.90
15872;DHT22;8035;51.962;7.162;2023-04-25T15:50:57;11.80;99.90
15872;DHT22;8035;51.962;7.162;2023-04-25T15:53:22;11.60;99.90
15872;DHT22;8035;51.962;7.162;2023-04-25T15:55:48;11.50;99.90
15872;DHT22;8035;51.962;7.162;2023-04-25T15:58:13;11.40;99.90
15872;DHT22;8035;51.962;7.162;2023-04-25T16:00:39;11.60;99.90
15872;DHT22;8035;51.962;7.162;2023-04-25T16:03:04;11.60;99.90
15872;DHT22;8035;51.962;7.162;2023-04-25T16:05:30;11.40;99.90
15872;DHT22;8035;51.962;7.162;2023-04-25T16:07:56;11.00;99.90
15872;DHT22;8035;51.962;7.162;2023-04-25T16:10:22;10.90;99.90
15872;DHT22;8035;51.962;7.162;2023-04-25T16:12:48;10.90;99.90
15872;DHT22;8035;51.962;7.162;2023-04-25T16:15:14;10.90;99.90
15872;DHT22;8035;51.962;7.162;2023-04-25T16:17:39;10.60;99.90
15872;DHT22;8035;51.962;7.162;2023-04-25T16:25:00;10.40;99.90
15872;DHT22;8035;51.962;7.162;2023-04-25T16:27:26;9.80;99.90
15872;DHT22;8035;51.962;7.162;2023-04-25T16:29:51;9.70;99.90
15872;DHT22;8035;51.962;7.162;2023-04-25T16:32:17;9.80;99.90
15872;DHT22;8035;51.962;7.162;2023-04-25T16:34:42;9.90;99.90
15872;DHT22;8035;51.962;7.162;2023-04-25T16:37:08;10.00;99.90
15872;DHT22;8035;51.962;7.162;2023-04-25T16:39:34;10.00;99.90
15872;DHT22;8035;51.962;7.162;2023-04-25T16:42:00;10.10;99.90
15872;DHT22;8035;51.962;7.162;2023-04-25T16:44:25;10.10;99.90
15872;DHT22;8035;51.962;7.162;2023-04-25T16:46:51;10.20;99.90
15872;DHT22;8035;51.962;7.162;2023-04-25T16:49:16;10.30;99.90
15872;DHT22;8035;51.962;7.162;2023-04-25T16:51:42;10.40;99.90
15872;DHT22;8035;51.962;7.162;2023-04-25T16:54:08;10.30;99.90
15872;DHT22;8035;51.962;7.162;2023-04-25T16:56:33;10.20;99.90
15872;DHT22;8035;51.962;7.162;2023-04-25T16:58:59;10.10;99.90
15872;DHT22;8035;51.962;7.162;2023-04-25T17:01:24;10.00;99.90
15872;DHT22;8035;51.962;7.162;2023-04-25T17:03:50;9.80;99.90
15872;DHT22;8035;51.962;7.162;2023-04-25T17:06:16;9.60;99.90
15872;DHT22;8035;51.962;7.162;2023-04-25T17:08:42;9.40;99.90
15872;DHT22;8035;51.962;7.162;2023-04-25T17:11:07;9.20;99.90
15872;DHT22;8035;51.962;7.162;2023-04-25T17:13:34;9.20;99.90
15872;DHT22;8035;51.962;7.162;2023-04-25T17:16:00;9.00;99.90
15872;DHT22;8035;51.962;7.162;2023-04-25T17:18:26;9.00;99.90
15872;DHT22;8035;51.962;7.162;2023-04-25T17:20:52;9.00;99.90
15872;DHT22;8035;51.962;7.162;2023-04-25T18:21:54;9.10;99.90
15872;DHT22;8035;51.962;7.162;2023-04-25T18:24:23;7.70;99.90
15872;DHT22;8035;51.962;7.162;2023-04-25T18:26:51;7.60;99.90
15872;DHT22;8035;51.962;7.162;2023-04-25T18:29:19;7.60;99.90
15872;DHT22;8035;51.962;7.162;2023-04-25T18:31:45;7.60;99.90
15872;DHT22;8035;51.962;7.162;2023-04-25T18:36:39;7.60;99.90
15872;DHT22;8035;51.962;7.162;2023-04-25T18:39:05;7.60;99.90
15872;DHT22;8035;51.962;7.162;2023-04-25T18:41:33;7.60;99.90
15872;DHT22;8035;51.962;7.162;2023-04-25T18:43:59;7.60;99.90
15872;DHT22;8035;51.962;7.162;2023-04-25T18:46:30;7.50;99.90
15872;DHT22;8035;51.962;7.162;2023-04-25T18:48:56;7.40;99.90
15872;DHT22;8035;51.962;7.162;2023-04-25T18:51:22;7.40;99.90
15872;DHT22;8035;51.962;7.162;2023-04-25T18:53:48;7.30;99.90
15872;DHT22;8035;51.962;7.162;2023-04-25T18:56:14;7.20;99.90
15872;DHT22;8035;51.962;7.162;2023-04-25T18:58:40;7.10;99.90
15872;DHT22;8035;51.962;7.162;2023-04-25T19:01:06;7.00;99.90
15872;DHT22;8035;51.962;7.162;2023-04-25T19:03:33;6.90;99.90
15872;DHT22;8035;51.962;7.162;2023-04-25T19:05:59;6.90;99.90
15872;DHT22;8035;51.962;7.162;2023-04-25T19:08:25;6.80;99.90
15872;DHT22;8035;51.962;7.162;2023-04-25T19:10:51;6.80;99.90
15872;DHT22;8035;51.962;7.162;2023-04-25T19:13:21;6.70;99.90
15872;DHT22;8035;51.962;7.162;2023-04-25T19:15:47;6.70;99.90
15872;DHT22;8035;51.962;7.162;2023-04-25T19:18:13;6.70;99.90
15872;DHT22;8035;51.962;7.162;2023-04-25T19:20:42;6.70;99.90
15872;DHT22;8035;51.962;7.162;2023-04-25T19:23:08;6.70;99.90
15872;DHT22;8035;51.962;7.162;2023-04-25T19:25:35;6.60;99.90
15872;DHT22;8035;51.962;7.162;2023-04-25T19:28:01;6.60;99.90
15872;DHT22;8035;51.962;7.162;2023-04-25T19:30:27;6.60;99.90
15872;DHT22;8035;51.962;7.162;2023-04-25T19:32:57;6.60;99.90
15872;DHT22;8035;51.962;7.162;2023-04-25T19:35:23;6.50;99.90
15872;DHT22;8035;51.962;7.162;2023-04-25T19:37:49;6.50;99.90
15872;DHT22;8035;51.962;7.162;2023-04-25T19:40:16;6.50;99.90
15872;DHT22;8035;51.962;7.162;2023-04-25T19:42:43;6.50;99.90
15872;DHT22;8035;51.962;7.162;2023-04-25T19:45:09;6.50;99.90
15872;DHT22;8035;51.962;7.162;2023-04-25T19:47:35;6.40;99.90
15872;DHT22;8035;51.962;7.162;2023-04-25T19:50:04;6.40;99.90
15872;DHT22;8035;51.962;7.162;2023-04-25T19:52:30;6.30;99.90
15872;DHT22;8035;51.962;7.162;2023-04-25T19:54:58;6.30;99.90
15872;DHT22;8035;51.962;7.162;2023-04-25T19:57:27;6.30;99.90
15872;DHT22;8035;51.962;7.162;2023-04-25T19:59:57;6.20;99.90
15872;DHT22;8035;51.962;7.162;2023-04-25T20:02:23;6.20;99.90
15872;DHT22;8035;51.962;7.162;2023-04-25T20:04:48;6.10;99.90
15872;DHT22;8035;51.962;7.162;2023-04-25T20:07:14;6.00;99.90
15872;DHT22;8035;51.962;7.162;2023-04-25T20:09:39;6.00;99.90
15872;DHT22;8035;51.962;7.162;2023-04-25T20:12:06;5.90;99.90
15872;DHT22;8035;51.962;7.162;2023-04-25T20:14:32;5.90;99.90
15872;DHT22;8035;51.962;7.162;2023-04-25T20:16:57;5.80;99.90
15872;DHT22;8035;51.962;7.162;2023-04-25T20:19:23;5.80;99.90
15872;DHT22;8035;51.962;7.162;2023-04-25T20:21:48;5.80;99.90
15872;DHT22;8035;51.962;7.162;2023-04-25T20:24:14;5.70;99.90
15872;DHT22;8035;51.962;7.162;2023-04-25T20:26:39;5.70;99.90
15872;DHT22;8035;51.962;7.162;2023-04-25T20:29:05;5.70;99.90
15872;DHT22;8035;51.962;7.162;2023-04-25T20:31:31;5.60;99.90
15872;DHT22;8035;51.962;7.162;2023-04-25T20:34:01;5.60;99.90
15872;DHT22;8035;51.962;7.162;2023-04-25T20:36:26;5.60;99.90
15872;DHT22;8035;51.962;7.162;2023-04-25T20:38:52;5.50;99.90
15872;DHT22;8035;51.962;7.162;2023-04-25T20:41:18;5.50;99.90
15872;DHT22;8035;51.962;7.162;2023-04-25T20:43:44;5.50;99.90
15872;DHT22;8035;51.962;7.162;2023-04-25T20:46:13;5.40;99.90
15872;DHT22;8035;51.962;7.162;2023-04-25T20:48:38;5.40;99.90
15872;DHT22;8035;51.962;7.162;2023-04-25T20:51:04;5.40;99.90
15872;DHT22;8035;51.962;7.162;2023-04-25T20:53:31;5.30;99.90
15872;DHT22;8035;51.962;7.162;2023-04-25T20:55:57;5.30;99.90
15872;DHT22;8035;51.962;7.162;2023-04-25T20:58:24;5.30;99.90
15872;DHT22;8035;51.962;7.162;2023-04-25T21:00:49;5.20;99.90
15872;DHT22;8035;51.962;7.162;2023-04-25T21:03:15;5.20;99.90
15872;DHT22;8035;51.962;7.162;2023-04-25T21:05:41;5.20;99.90
15872;DHT22;8035;51.962;7.162;2023-04-25T21:08:07;5.20;99.90
15872;DHT22;8035;51.962;7.162;2023-04-25T21:10:32;5.10;99.90
15872;DHT22;8035;51.962;7.162;2023-04-25T21:12:58;5.10;99.90
15872;DHT22;8035;51.962;7.162;2023-04-25T21:15:24;5.00;99.90
15872;DHT22;8035;51.962;7.162;2023-04-25T21:17:50;5.00;99.90
15872;DHT22;8035;51.962;7.162;2023-04-25T21:20:17;5.00;99.90
15872;DHT22;8035;51.962;7.162;2023-04-25T21:22:44;4.90;99.90
15872;DHT22;8035;51.962;7.162;2023-04-25T21:25:23;4.90;99.90
15872;DHT22;8035;51.962;7.162;2023-04-25T21:27:53;4.90;99.90
15872;DHT22;8035;51.962;7.162;2023-04-25T21:30:20;4.80;99.90
15872;DHT22;8035;51.962;7.162;2023-04-25T21:32:46;4.80;99.90
15872;DHT22;8035;51.962;7.162;2023-04-25T21:35:13;4.80;99.90
15872;DHT22;8035;51.962;7.162;2023-04-25T21:37:39;4.80;99.90
15872;DHT22;8035;51.962;7.162;2023-04-25T21:40:07;4.90;99.90
15872;DHT22;8035;51.962;7.162;2023-04-25T21:42:33;4.90;99.90
15872;DHT22;8035;51.962;7.162;2023-04-25T21:45:00;4.90;99.90
15872;DHT22;8035;51.962;7.162;2023-04-25T21:47:26;4.90;99.90
15872;DHT22;8035;51.962;7.162;2023-04-25T21:49:52;4.90;99.90
15872;DHT22;8035;51.962;7.162;2023-04-25T21:52:17;4.90;99.90
15872;DHT22;8035;51.962;7.162;2023-04-25T21:54:43;4.90;99.90
15872;DHT22;8035;51.962;7.162;2023-04-25T21:57:08;4.90;99.90
15872;DHT22;8035;51.962;7.162;2023-04-25T21:59:35;4.90;99.90
15872;DHT22;8035;51.962;7.162;2023-04-25T22:02:01;4.90;99.90
15872;DHT22;8035;51.962;7.162;2023-04-25T22:04:26;4.80;99.90
15872;DHT22;8035;51.962;7.162;2023-04-25T22:06:52;4.80;99.90
15872;DHT22;8035;51.962;7.162;2023-04-25T22:09:17;4.70;99.90
15872;DHT22;8035;51.962;7.162;2023-04-25T22:11:43;4.60;99.90
15872;DHT22;8035;51.962;7.162;2023-04-25T22:14:09;4.60;99.90
15872;DHT22;8035;51.962;7.162;2023-04-25T22:16:35;4.60;99.90
15872;DHT22;8035;51.962;7.162;2023-04-25T22:19:01;4.50;99.90
15872;DHT22;8035;51.962;7.162;2023-04-25T22:21:26;4.50;99.90
15872;DHT22;8035;51.962;7.162;2023-04-25T22:23:52;4.40;99.90
15872;DHT22;8035;51.962;7.162;2023-04-25T22:26:18;4.40;99.90
15872;DHT22;8035;51.962;7.162;2023-04-25T22:28:45;4.40;99.90
15872;DHT22;8035;51.962;7.162;2023-04-25T22:31:10;4.40;99.90
15872;DHT22;8035;51.962;7.162;2023-04-25T22:33:36;4.40;99.90
15872;DHT22;8035;51.962;7.162;2023-04-25T22:36:02;4.40;99.90
15872;DHT22;8035;51.962;7.162;2023-04-25T22:38:28;4.40;99.90
15872;DHT22;8035;51.962;7.162;2023-04-25T22:40:53;4.30;99.90
15872;DHT22;8035;51.962;7.162;2023-04-25T22:43:19;4.40;99.90
15872;DHT22;8035;51.962;7.162;2023-04-25T22:45:45;4.30;99.90
15872;DHT22;8035;51.962;7.162;2023-04-25T22:48:11;4.30;99.90
15872;DHT22;8035;51.962;7.162;2023-04-25T22:50:36;4.40;99.90
15872;DHT22;8035;51.962;7.162;2023-04-25T22:53:05;4.40;99.90
15872;DHT22;8035;51.962;7.162;2023-04-25T22:55:31;4.30;99.90
15872;DHT22;8035;51.962;7.162;2023-04-25T22:57:56;4.30;99.90
15872;DHT22;8035;51.962;7.162;2023-04-25T23:00:22;4.20;99.90
15872;DHT22;8035;51.962;7.162;2023-04-25T23:02:50;4.20;99.90
15872;DHT22;8035;51.962;7.162;2023-04-25T23:05:17;4.20;99.90
15872;DHT22;8035;51.962;7.162;2023-04-25T23:07:42;4.10;99.90
15872;DHT22;8035;51.962;7.162;2023-04-25T23:10:11;4.00;99.90
15872;DHT22;8035;51.962;7.162;2023-04-25T23:12:38;4.00;99.90
15872;DHT22;8035;51.962;7.162;2023-04-25T23:15:05;3.90;99.90
15872;DHT22;8035;51.962;7.162;2023-04-25T23:17:31;3.90;99.90
15872;DHT22;8035;51.962;7.162;2023-04-25T23:19:56;3.80;99.90
15872;DHT22;8035;51.962;7.162;2023-04-25T23:22:22;3.80;99.90
15872;DHT22;8035;51.962;7.162;2023-04-25T23:24:47;3.70;99.90
15872;DHT22;8035;51.962;7.162;2023-04-25T23:27:14;3.70;99.90
15872;DHT22;8035;51.962;7.162;2023-04-25T23:29:39;3.60;99.90
15872;DHT22;8035;51.962;7.162;2023-04-25T23:32:05;3.60;99.90
15872;DHT22;8035;51.962;7.162;2023-04-25T23:34:31;3.50;99.90
15872;DHT22;8035;51.962;7.162;2023-04-25T23:36:57;3.50;99.90
15872;DHT22;8035;51.962;7.162;2023-04-25T23:39:26;3.50;99.90
15872;DHT22;8035;51.962;7.162;2023-04-25T23:41:52;3.40;99.90
15872;DHT22;8035;51.962;7.162;2023-04-25T23:44:17;3.30;99.90
15872;DHT22;8035;51.962;7.162;2023-04-25T23:46:43;3.30;99.90
15872;DHT22;8035;51.962;7.162;2023-04-25T23:49:08;3.30;99.90
15872;DHT22;8035;51.962;7.162;2023-04-25T23:51:34;3.30;99.90
15872;DHT22;8035;51.962;7.162;2023-04-25T23:54:00;3.20;99.90
15872;DHT22;8035;51.962;7.162;2023-04-25T23:56:26;3.20;99.90
15872;DHT22;8035;51.962;7.162;2023-04-25T23:58:51;3.10;99.90
